Main page
METAR-TAF:

METAR-TAF

Airports :

Mariehamn Airport

Mariehamn, Finland

latitude: 60-07N, longitude: 019-54E, elevation: 6 m

Current weather observation

The report was made 22 minutes ago, at 10:50 UTC
Wind 12 kt from the South
Temperature 18°C
Humidity 94%
Pressure 1008 hPa
Visibility: 3400 m
Overcast at a height of 100 ft
mist,

METAR: EFMA 171050Z AUTO 18012KT 3400 BR OVC001 18/17 Q1008

Time: 14:12 (11:12 UTC)

Forecast

The report was made 1 hour and 36 minutes ago, at 09:36 UTC
Forecast valid from 17 at 09 UTC to 17 at 18 UTC
Wind 12 kt from the South/Southeast
Visibility 10 km or more
Broken clouds at a height of 100 ft
Temporary
from 17 at 09 UTC to 17 at 11 UTC
Visibility: 1200 m
Broken clouds at a height of 300 ft
mist
Becoming
from 17 at 11 UTC to 17 at 13 UTC
Scattered clouds at a height of 700 ft

TAF: EFMA 170936Z 1709/1718 15012KT 9999 BKN001 TEMPO 1709/1711 1200 BR BKN003 BECMG 1711/1713 SCT007

Weather observations and forecasts of more than 4000 airports (METAR and TAF reports).

The available stations are represented by yellow and red dots on the map.

Hover mouse over dot to see the name of the station.

Then click to see weather observations and forecasts.

To change the map : click on the green buttons with a black cross to zoom in, on the green button with a dash to zoom out, or on the green arrows for adjacent maps.


METAR-TAF: